Portada
METAR-TAF:

METAR-TAF

Aeroports :

Tarawa, Kiribati

latitud: 01-21N, longitud: 172-55E, altitud: 2 m

Observació

L'informe es va fer fa 42 minuts, a les 06:00 UTC
Vent 3 kt del Nord
Temperatura 30°C
Humitat 75%
Pressió 1008 hPa
Visibilitat 10 km o més
Escasses núvols a una alçada de 1800 ft, Cumulus congestus.
Cel ennuvolat a una alçada de 30000 ft

METAR: NGTA 240600Z 36003KT 9999 FEW018TCU BKN300 30/25 Q1008

Hora: 20:42 (06:42 UTC)

Pronòstic

L'informe es va fer fa 1 hora i 21 minuts, a les 05:21 UTC
Pronòstic vàlid del 24 a les 06 UTC al 25 a les 06 UTC
Vent 6 kt del Nord-Est
Visibilitat 10 km o més
Núvols disperses a una alçada de 1800 ft
Cel ennuvolat a una alçada de 10000 ft
xàfecs de pluja
Probabilitat 30% :
Temporalment
l' 24 a les 06 UTC al 24 a les 12 UTC
Visibilitat: 5000 m
Escasses núvols a una alçada de 1700 ft, Cumulonimbus.
tempesta, pluja

TAF: NGTA 240521Z 2406/2506 05006KT 9999 -SHRA SCT018 BKN100 PROB30 TEMPO 2406/2412 5000 TSRA FEW017CB

Observacions i pronòstics meteorològics de més de 4000 aeroports (METAR i TAF).

Les estacions disponibles són els punts grocs i vermells al mapa.

Posi el ratolí al punt desitjat per veure el nom de l'estació.

Feu clic per veure les observacions i els pronòstics meteorològics.

Per canviar el mapa: feu clic els botons verds amb una creu de color negre per apropar; al botó verd amb un guió per allunyar la imatge; o en les fletxes verdes per a mapes adjacents.


METAR-TAF: